CDT,Max TemperatureF,Mean TemperatureF,Min TemperatureF,Max Dew PointF,MeanDew PointF,Min DewpointF,Max Humidity, Mean Humidity, Min Humidity, Max Sea Level PressureIn, Mean Sea Level PressureIn, Min Sea Level PressureIn, Max VisibilityMiles, Mean VisibilityMiles, Min VisibilityMiles, Max Wind SpeedMPH, Mean Wind SpeedMPH, Max Gust SpeedMPH,PrecipitationIn, CloudCover, Events, WindDirDegrees
2011-10-1,78,68,57,54,47,41,84,49,29,30.15,30.09,30.02,10,10,10,16,7,24,0.00,0,,28
2011-10-2,75,63,53,52,47,44,90,58,34,30.21,30.16,30.13,10,10,10,15,7,,0.00,0,,40
2011-10-3,77,64,50,54,49,38,93,68,24,30.24,30.20,30.16,10,10,7,10,2,,0.00,0,,52
2011-10-4,81,66,50,57,50,44,94,73,29,30.25,30.20,30.15,10,7,1,10,1,,0.00,0,Fog,63
2011-10-5,84,66,48,66,55,48,100,76,34,30.18,30.14,30.09,10,6,1,13,2,,0.00,1,,76
2011-10-6,82,70,60,68,62,57,97,78,54,30.15,30.11,30.08,10,7,0,16,4,24,0.00,2,Fog-Rain,77
2011-10-7,84,75,66,68,66,62,90,76,53,30.19,30.14,30.10,10,9,4,17,7,22,0.00,2,,73
2011-10-8,82,75,68,69,67,63,90,75,62,30.16,30.11,30.07,10,10,9,18,9,25,0.00,3,Rain,74
2011-10-9,82,74,70,67,65,63,84,72,60,30.07,30.02,29.97,10,10,10,21,12,25,0.00,4,,69
2011-10-10,82,74,66,65,63,62,88,72,52,30.01,29.94,29.88,10,10,10,14,9,22,0.00,3,,40
2011-10-11,79,70,64,64,62,61,90,75,57,29.92,29.88,29.83,10,10,9,9,4,,0.00,5,,24
2011-10-12,84,71,60,70,64,59,94,81,52,29.89,29.85,29.78,10,6,0,12,1,,0.00,4,Fog-Rain-Thunderstorm,217
2011-10-13,86,72,61,71,62,51,100,78,37,29.89,29.82,29.76,10,4,0,12,2,16,0.00,4,Fog-Rain,270
2011-10-14,82,68,55,63,54,48,94,74,32,30.04,29.96,29.89,10,8,2,8,1,,0.00,0,Fog,84
2011-10-15,84,70,55,63,55,50,93,69,32,30.11,30.07,30.03,10,10,4,12,2,,0.00,0,,66
2011-10-16,86,70,55,67,57,53,100,84,33,30.13,30.08,30.02,10,5,0,9,1,,0.00,0,Fog-Rain,75
2011-10-17,86,70,55,70,60,54,100,84,53,30.01,29.95,29.81,10,4,0,9,1,,0.00,2,Fog,99
2011-10-18,86,70,55,70,62,45,100,82,49,29.82,29.73,29.60,10,5,0,21,2,34,0.00,5,Fog-Rain,316
2011-10-19,66,54,45,46,40,31,90,58,30,30.04,29.90,29.82,10,10,10,16,9,30,0.00,1,,296
2011-10-20,69,54,39,46,38,26,93,65,22,30.16,30.10,30.05,10,8,1,9,1,17,0.00,0,Fog-Rain,333
2011-10-21,75,58,42,50,41,32,90,64,21,30.25,30.19,30.16,10,10,8,7,1,,0.00,0,Fog,15
2011-10-22,77,62,48,51,45,38,89,65,27,30.21,30.15,30.09,10,10,4,12,2,,0.00,1,,56
2011-10-23,77,62,48,57,49,45,93,69,37,30.13,30.09,30.04,10,9,2,9,1,,0.00,2,,135
2011-10-24,81,69,55,63,58,52,90,71,40,30.21,30.15,30.11,10,9,7,10,2,,0.00,3,Rain,350
2011-10-25,80,66,51,61,54,50,100,80,42,30.23,30.17,30.11,10,6,0,12,2,18,0.00,0,Fog,100
2011-10-26,81,68,55,63,57,54,94,82,45,30.10,30.04,29.97,10,5,0,9,1,18,0.00,2,Fog,126
2011-10-27,82,70,57,62,58,55,94,72,42,29.97,29.92,29.88,10,9,2,10,3,,0.00,3,Fog,172
2011-10-28,75,66,55,67,57,45,94,83,63,30.11,29.97,29.91,10,6,0,16,3,31,0.00,5,Fog-Rain,347
2011-10-29,66,56,45,43,37,32,83,54,28,30.22,30.15,30.10,10,10,10,16,10,25,0.00,1,,17
2011-10-30,69,56,43,51,46,39,90,71,47,30.21,30.17,30.14,10,10,10,16,5,21,0.00,3,,51
2011-10-31,72,58,44,52,44,41,97,78,35,30.23,30.19,30.15,10,6,2,13,1,16,0.00,0,Fog,37